Flight Track Log - Related Links

Times and Time Zones

All times are in EDT time to prevent confusion due to time zone crossing. See the SWA2147 flight status page for this flight to view local times or setup timezone preferences in your user account.

Time Position Orientation Groundspeed Altitude Reporting Facility
EDT Latitude Longitude Course Direction KTS MPH feet Rate Location/Type
Fri 10:14:16 PM 41.8000 -87.7667 66° East 165 190 1,900  Level Chicago TRACON
Fri 10:15:16 PM 41.8167 -87.7167 66° East 201 231 3,400 973 Climbing Chicago TRACON
Fri 10:17:21 PM 41.8350 -87.5436 82° East 242 278 4,900 935 Climbing Chicago Center
Fri 10:18:22 PM 41.8450 -87.4506 82° East 251 289 6,300 2,439 Climbing Chicago Center
Fri 10:19:24 PM 41.8564 -87.3525 81° East 264 304 9,900 2,732 Climbing Chicago Center
Fri 10:20:25 PM 41.8858 -87.2161 74° East 330 380 11,900 2,244 Climbing Chicago Center
Fri 10:21:27 PM 41.9181 -87.0900 71° East 358 412 14,500 2,829 Climbing Chicago Center
Fri 10:22:28 PM 41.9344 -86.9553 81° East 365 420 17,700 2,902 Climbing Chicago Center
Fri 10:23:29 PM 41.9506 -86.8178 81° East 372 428 20,400 1,902 Climbing Chicago Center
Fri 10:24:31 PM 41.9678 -86.6783 81° East 378 435 21,600 1,524 Climbing Chicago Center
Fri 10:26:34 PM 42.0036 -86.3672 81° East 411 473 25,100 1,728 Climbing Chicago Center
Fri 10:27:35 PM 42.0217 -86.2100 81° East 424 488 26,900 1,721 Climbing Chicago Center
Fri 10:28:36 PM 42.0400 -86.0522 81° East 426 490 28,600 1,268 Climbing Chicago Center
Fri 10:29:38 PM 42.0558 -85.9056 82° East 427 491 29,500 1,122 Climbing Chicago Center
Fri 10:30:39 PM 42.0739 -85.7422 81° East 441 507 30,900 1,512 Climbing Chicago Center
Fri 10:31:41 PM 42.0961 -85.5444 81° East 448 516 32,600 1,024 Climbing Chicago Center
Fri 10:32:42 PM 42.1136 -85.3783 82° East 451 519 33,000 264 Climbing Chicago Center
Fri 10:33:12 PM 42.1261 -85.2900 79° East 441 507 33,000 267 Level Cleveland Center
Fri 10:34:12 PM 42.1431 -85.1261 82° East 441 507 33,400 500 Climbing Cleveland Center
Fri 10:35:12 PM 42.1808 -84.9606 73° East 441 507 34,000 800 Climbing Cleveland Center
Fri 10:36:12 PM 42.2428 -84.8133 60° Northeast 441 507 35,000 500 Climbing Cleveland Center
Fri 10:37:12 PM 42.3003 -84.6628 63° Northeast 441 507 35,000  Level Cleveland Center
Fri 10:38:12 PM 42.3328 -84.5103 74° East 436 502 35,000  Level Cleveland Center
Fri 10:39:12 PM 42.3464 -84.3453 84° East 426 490 35,000  Level Cleveland Center
Fri 10:40:12 PM 42.3581 -84.1800 84° East 432 497 35,000  Level Cleveland Center
Fri 10:41:12 PM 42.3733 -84.0178 83° East 437 503 35,000  Level Cleveland Center
Fri 10:42:12 PM 42.3867 -83.8556 84° East 442 509 35,000  Level Cleveland Center
Fri 10:43:12 PM 42.3994 -83.6875 84° East 442 509 35,000  Level Cleveland Center
Fri 10:44:12 PM 42.4097 -83.5361 85° East 442 509 35,000  Level Cleveland Center
Fri 10:45:12 PM 42.4222 -83.3706 84° East 447 514 35,000  Level Cleveland Center
Fri 10:46:12 PM 42.4369 -83.1856 84° East 442 509 35,000  Level Cleveland Center
Fri 10:47:12 PM 42.4489 -83.0172 84° East 442 509 35,000  Level Cleveland Center
Fri 10:48:12 PM 42.4608 -82.8517 84° East 442 509 35,000  Level Cleveland Center
Fri 10:49:12 PM 42.4722 -82.6831 85° East 442 509 35,000  Level Cleveland Center
Fri 10:50:12 PM 42.4836 -82.5147 85° East 442 509 35,000  Level Cleveland Center
Fri 10:51:12 PM 42.4947 -82.3458 85° East 442 509 35,000  Level Cleveland Center
Fri 10:52:12 PM 42.5075 -82.1772 84° East 442 509 35,000  Level Cleveland Center
Fri 10:53:12 PM 42.5161 -82.0058 86° East 442 509 35,000  Level Cleveland Center
Fri 10:54:12 PM 42.5283 -81.8342 84° East 442 509 35,000  Level Cleveland Center
Fri 10:55:12 PM 42.5406 -81.6681 84° East 442 509 35,000  Level Cleveland Center
Fri 10:56:12 PM 42.5503 -81.5161 85° East 448 516 35,000  Level Cleveland Center
Fri 10:57:12 PM 42.5597 -81.3469 86° East 448 516 35,000  Level Cleveland Center
Fri 10:58:12 PM 42.5711 -81.1725 85° East 456 525 35,000  Level Cleveland Center
Fri 10:59:12 PM 42.5803 -80.9978 86° East 461 531 35,000  Level Cleveland Center
Fri 11:00:12 PM 42.5892 -80.8314 86° East 456 525 35,000  Level Cleveland Center
Fri 11:01:12 PM 42.5997 -80.6453 86° East 456 525 35,000  Level Cleveland Center
Fri 11:02:12 PM 42.6081 -80.4703 86° East 461 531 35,000  Level Cleveland Center
Fri 11:03:12 PM 42.6119 -80.2983 88° East 456 525 35,000  Level Cleveland Center
Fri 11:04:12 PM 42.6239 -80.1317 84° East 456 525 35,000  Level Cleveland Center
Fri 11:05:12 PM 42.6358 -79.9622 84° East 462 532 35,000  Level Cleveland Center
Fri 11:06:12 PM 42.6431 -79.7928 87° East 451 519 35,000  Level Cleveland Center
Fri 11:07:12 PM 42.6500 -79.6261 87° East 444 511 35,000  Level Cleveland Center
Fri 11:08:12 PM 42.6547 -79.4597 88° East 444 511 35,000  Level Cleveland Center
Fri 11:09:12 PM 42.6614 -79.2931 87° East 444 511 35,000  Level Cleveland Center
Fri 11:10:12 PM 42.6700 -79.1261 86° East 444 511 35,000  Level Cleveland Center
Fri 11:11:12 PM 42.6739 -78.9622 88° East 439 505 35,000  Level Cleveland Center
Fri 11:12:12 PM 42.6797 -78.7956 87° East 439 505 35,000  Level Cleveland Center
Fri 11:13:12 PM 42.6875 -78.6314 86° East 439 505 35,000  Level Cleveland Center
Fri 11:14:12 PM 42.6908 -78.4647 88° East 439 505 35,000  Level Cleveland Center
Fri 11:15:12 PM 42.6961 -78.2978 87° East 439 505 35,000  Level Cleveland Center
Fri 11:16:12 PM 42.7011 -78.1336 88° East 439 505 35,000  Level Cleveland Center
Fri 11:17:12 PM 42.7078 -77.9667 87° East 439 505 35,000  Level Cleveland Center
Fri 11:18:12 PM 42.7122 -77.8025 88° East 439 505 35,000  Level Cleveland Center
Fri 11:19:12 PM 42.7164 -77.6328 88° East 445 512 35,000  Level Cleveland Center
Fri 11:21:08 PM 42.7206 -77.3275 89° East 452 520 35,000  Level Boston Center
Fri 11:22:08 PM 42.7256 -77.1611 88° East 447 514 35,000  Level Boston Center
Fri 11:23:08 PM 42.7281 -76.9944 89° East 442 509 35,000  Level Boston Center
Fri 11:24:20 PM 42.7319 -76.7908 88° East 437 503 35,000  Level Boston Center
Fri 11:25:20 PM 42.7361 -76.6244 88° East 437 503 35,000  Level Boston Center
Fri 11:26:20 PM 42.7378 -76.4633 89° East 437 503 35,000  Level Boston Center
Fri 11:27:20 PM 42.7394 -76.2936 89° East 437 503 35,000  Level Boston Center
Fri 11:28:20 PM 42.7428 -76.1328 88° East 437 503 35,000  Level Boston Center
Fri 11:29:20 PM 42.7436 -75.9686 90° East 437 503 35,000  Level Boston Center
Fri 11:30:20 PM 42.7467 -75.8047 88° East 437 503 35,000  Level Boston Center
Fri 11:31:20 PM 42.7475 -75.6325 90° East 443 510 35,000  Level Boston Center
Fri 11:32:20 PM 42.7500 -75.4628 89° East 443 510 35,000  Level Boston Center
Fri 11:33:20 PM 42.7500 -75.2958 90° East 443 510 35,000 -400 Level Boston Center
Fri 11:34:20 PM 42.7500 -75.1264 90° East 443 510 34,200 -1,400 Descending Boston Center
Fri 11:35:20 PM 42.7517 -74.9681 89° East 432 497 32,200 -1,900 Descending Boston Center
Fri 11:36:20 PM 42.7508 -74.8097 90° East 420 483 30,400 -1,600 Descending Boston Center
Fri 11:37:20 PM 42.7500 -74.6400 90° East 414 476 29,000 -700 Descending Boston Center
Fri 11:38:20 PM 42.7508 -74.4844 90° East 414 476 29,000  Level Boston Center
Fri 11:39:20 PM 42.7494 -74.3317 91° East 403 464 29,000  Level Boston Center
Fri 11:40:20 PM 42.7497 -74.1789 90° East 403 464 29,000  Level Boston Center
Fri 11:41:20 PM 42.7458 -74.0233 92° East 403 464 29,000 -100 Level Boston Center
Fri 11:42:20 PM 42.7478 -73.8736 89° East 403 464 28,800 -1,050 Descending Boston Center
Fri 11:43:20 PM 42.7494 -73.7236 89° East 403 464 26,900 -1,900 Descending Boston Center
Fri 11:44:20 PM 42.7572 -73.5881 85° East 379 436 25,000 -1,450 Descending Boston Center
Fri 11:45:20 PM 42.7628 -73.4469 87° East 367 422 24,000 -500 Descending Boston Center
Fri 11:46:20 PM 42.7661 -73.3056 88° East 367 422 24,000 -350 Level Boston Center
Fri 11:47:20 PM 42.7731 -73.1783 86° East 367 422 23,300 -900 Descending Boston Center
Fri 11:48:20 PM 42.7803 -73.0456 86° East 362 417 22,200 -1,100 Descending Boston Center
Fri 11:49:20 PM 42.7831 -72.8956 89° East 363 418 21,100 -1,100 Descending Boston Center
Fri 11:50:20 PM 42.7897 -72.7711 86° East 347 399 20,000 -1,250 Descending Boston Center
Fri 11:51:20 PM 42.7961 -72.6664 85° East 315 362 18,600 -1,300 Descending Boston Center
Fri 11:52:20 PM 42.8006 -72.5475 87° East 307 353 17,400 -1,450 Descending Boston Center
Fri 11:53:20 PM 42.8047 -72.4317 87° East 307 353 15,700 -1,650 Descending Boston Center
Fri 11:54:20 PM 42.8089 -72.3211 87° East 307 353 14,100 -1,591 Descending Boston Center
Fri 11:55:32 PM 42.8128 -72.1939 88° East 307 353 12,200 -1,545 Descending Boston Center
Fri 11:56:32 PM 42.8228 -72.0750 83° East 294 338 10,700 -1,200 Descending Boston Center
Fri 11:57:32 PM 42.8581 -71.9756 64° Northeast 267 307 9,800 -1,050 Descending Boston Center
Fri 11:58:32 PM 42.8828 -71.9017 65° Northeast 246 283 8,600 -1,450 Descending Boston Center
Fri 11:59:32 PM 42.9133 -71.8164 64° Northeast 229 264 6,900 -1,700 Descending Boston Center
Sat 12:00:32 AM 42.9361 -71.7453 66° East 224 258 5,200 -1,700 Descending Boston Center
Sat 12:01:32 AM 42.9647 -71.6656 64° Northeast 212 244 3,500 -1,250 Descending Boston Center
Sat 12:02:32 AM 42.9789 -71.6028 73° East 205 236 2,700 -900 Descending Boston Center
Sat 12:03:32 AM 42.9950 -71.5317 73° East 180 207 1,700 -500 Descending Boston Center
Sat 12:04:32 AM 43.0028 -71.4806 78° East 164 189 1,700 -450 Level Boston Center
Sat 12:05:32 AM 42.9631 -71.4528 153° Southeast 131 151 800 3,650 Descending Boston Center
Sat 12:06:32 AM 42.9358 -71.4306 149° Southeast 137 158 9,000 4,100 Climbing Boston Center
Sat 12:07:32 AM 42.9042 -71.4028 147° Southeast 137 158 9,000  Level Boston Center
Sat 12:08:32 AM 42.8728 -71.3750 147° Southeast 137 158 9,000  Level Boston Center
Sat 12:09:32 AM 42.8411 -71.3472 147° Southeast 137 158 9,000  Level Boston Center
Sat 12:11:00 AM 42.9167 -71.4333 316° Northwest  Level FlightAware Approximate
Sat 12:18:00 AM 42.9328 -71.4358 316° Northwest  Level Estimated
Sat 12:19:00 AM 42.9328 -71.4358 316° Northwest  Level Estimated
Sat 12:20:00 AM 42.9328 -71.4358 316° Northwest  Level Estimated
Sat 12:21:00 AM 42.9328 -71.4358 316° Northwest  Level Estimated
Sat 12:22:00 AM 42.9328 -71.4358 316° Northwest  Level Estimated
Sat 12:23:00 AM 42.9328 -71.4358 316° Northwest  Level Estimated

Login

Don't have an account? Register now (free) for customized features, flight alerts, and more!